createdAt,value
2018-12-24T00:01:39.359Z,17.33
2018-12-24T00:04:09.233Z,18.07
2018-12-24T00:06:39.051Z,15.90
2018-12-24T00:09:08.965Z,12.70
2018-12-24T00:11:38.823Z,8.10
2018-12-24T00:14:08.777Z,7.03
2018-12-24T00:16:38.683Z,5.07
2018-12-24T00:19:08.541Z,4.53
2018-12-24T00:21:38.365Z,4.10
2018-12-24T00:24:08.270Z,3.80
2018-12-24T00:26:38.219Z,4.87
2018-12-24T00:29:08.066Z,7.50
2018-12-24T00:31:37.883Z,6.17
2018-12-24T00:34:07.842Z,8.57
2018-12-24T00:36:37.744Z,7.10
2018-12-24T00:39:26.474Z,9.73
2018-12-24T00:41:56.278Z,6.23
2018-12-24T00:44:45.089Z,3.83
2018-12-24T00:47:15.024Z,5.87
2018-12-24T00:49:44.855Z,5.30
2018-12-24T00:52:14.770Z,5.23
2018-12-24T00:54:44.620Z,4.80
2018-12-24T00:57:14.459Z,14.27
2018-12-24T00:59:44.373Z,5.23
2018-12-24T01:02:14.322Z,5.03
2018-12-24T01:04:44.130Z,5.50
2018-12-24T01:07:13.939Z,3.67
2018-12-24T01:09:43.890Z,3.43
2018-12-24T01:12:13.851Z,3.43
2018-12-24T01:14:43.723Z,4.20
2018-12-24T01:17:13.565Z,4.50
2018-12-24T01:19:43.513Z,6.37
2018-12-24T01:22:13.464Z,13.23
2018-12-24T01:24:43.319Z,1.97
2018-12-24T01:27:13.137Z,3.43
2018-12-24T01:29:43.084Z,4.63
2018-12-24T01:32:12.998Z,10.07
2018-12-24T01:34:42.817Z,14.80
2018-12-24T01:37:12.646Z,10.17
2018-12-24T01:39:42.563Z,11.67
2018-12-24T01:42:12.510Z,10.17
2018-12-24T01:44:42.405Z,9.50
2018-12-24T01:47:12.270Z,14.67
2018-12-24T01:49:42.184Z,28.20
2018-12-24T01:52:12.142Z,33.27
2018-12-24T01:54:42.001Z,28.87
2018-12-24T01:57:11.794Z,15.07
2018-12-24T01:59:41.749Z,8.13
2018-12-24T02:02:11.704Z,6.50
2018-12-24T02:04:41.564Z,11.73
2018-12-24T02:07:11.416Z,23.13
2018-12-24T02:09:41.386Z,25.40
2018-12-24T02:12:11.192Z,17.77
2018-12-24T02:14:41.182Z,10.10
2018-12-24T02:17:11.092Z,7.77
2018-12-24T02:20:01.219Z,5.60
2018-12-24T02:22:31.074Z,8.13
2018-12-24T02:25:00.979Z,4.17
2018-12-24T02:27:30.936Z,3.50
2018-12-24T02:30:00.764Z,2.80
2018-12-24T02:32:30.628Z,3.03
2018-12-24T02:35:00.537Z,7.10
2018-12-24T02:37:30.492Z,4.50
2018-12-24T02:40:00.340Z,5.80
2018-12-24T02:42:30.156Z,5.40
2018-12-24T02:45:00.252Z,4.93
2018-12-24T02:47:30.087Z,3.67
2018-12-24T02:49:59.896Z,4.27
2018-12-24T02:52:29.845Z,3.20
2018-12-24T02:54:59.657Z,5.20
2018-12-24T02:57:29.477Z,6.13
2018-12-24T02:59:59.393Z,4.70
2018-12-24T03:02:29.297Z,9.97
2018-12-24T03:04:59.147Z,15.50
2018-12-24T03:07:29.002Z,11.27
2018-12-24T03:09:58.919Z,7.93
2018-12-24T03:12:28.878Z,5.87
2018-12-24T03:14:58.742Z,4.73
2018-12-24T03:17:28.559Z,4.37
2018-12-24T03:19:58.507Z,11.10
2018-12-24T03:22:28.475Z,17.47
2018-12-24T03:25:17.154Z,13.40
2018-12-24T03:27:46.978Z,13.63
2018-12-24T03:30:16.926Z,10.27
2018-12-24T03:32:46.736Z,7.03
2018-12-24T03:35:16.651Z,6.57
2018-12-24T03:37:46.580Z,11.83
2018-12-24T03:40:16.402Z,16.17
2018-12-24T03:42:46.270Z,11.47
2018-12-24T03:45:16.197Z,10.03
2018-12-24T03:47:46.294Z,17.10
2018-12-24T03:50:16.075Z,30.83
2018-12-24T03:52:46.085Z,7.83
2018-12-24T03:55:16.020Z,7.83
2018-12-24T03:57:45.921Z,9.33
2018-12-24T04:00:15.778Z,3.93
2018-12-24T04:02:45.587Z,5.83
2018-12-24T04:05:15.543Z,4.57
2018-12-24T04:07:45.482Z,4.37
2018-12-24T04:10:15.287Z,3.80
2018-12-24T04:12:45.323Z,92.63
2018-12-24T04:15:15.167Z,17.73
2018-12-24T04:17:44.980Z,13.27
2018-12-24T04:20:14.925Z,11.40
2018-12-24T04:22:44.855Z,58.03
2018-12-24T04:25:14.681Z,20.27
2018-12-24T04:27:44.543Z,121.67
2018-12-24T04:30:14.461Z,19.80
2018-12-24T04:32:44.415Z,35.43
2018-12-24T04:35:14.227Z,28.83
2018-12-24T04:37:44.104Z,41.37
2018-12-24T04:40:14.002Z,28.53
2018-12-24T04:42:43.929Z,70.43
2018-12-24T04:45:13.790Z,29.03
2018-12-24T04:47:43.646Z,12.37
2018-12-24T04:50:13.555Z,12.80
2018-12-24T04:52:43.356Z,9.93
2018-12-24T04:55:13.318Z,15.33
2018-12-24T04:57:43.235Z,9.57
2018-12-24T05:00:13.034Z,7.70
2018-12-24T05:02:42.886Z,28.97
2018-12-24T05:05:12.848Z,22.77
2018-12-24T05:07:42.752Z,90.93
2018-12-24T05:10:12.629Z,58.53
2018-12-24T05:12:42.463Z,38.37
2018-12-24T05:15:12.372Z,39.60
2018-12-24T05:17:42.338Z,47.53
2018-12-24T05:20:12.162Z,37.60
2018-12-24T05:22:42.025Z,64.47
2018-12-24T05:25:11.944Z,134.80
2018-12-24T05:27:41.912Z,66.30
2018-12-24T05:30:11.750Z,68.37
2018-12-24T05:32:41.706Z,85.63
2018-12-24T05:35:11.522Z,63.30
2018-12-24T05:37:41.431Z,32.40
2018-12-24T05:40:11.323Z,23.70
2018-12-24T05:42:41.282Z,160.40
2018-12-24T05:45:11.099Z,62.63
2018-12-24T05:47:40.947Z,9.37
2018-12-24T05:50:10.859Z,13.67
2018-12-24T05:52:40.818Z,25.50
2018-12-24T05:55:10.686Z,71.37
2018-12-24T05:57:40.536Z,95.00
2018-12-24T06:00:10.449Z,77.43
2018-12-24T06:02:40.393Z,35.63
2018-12-24T06:05:10.328Z,148.20
2018-12-24T06:07:40.175Z,34.07
2018-12-24T06:10:10.208Z,23.53
2018-12-24T06:12:40.027Z,45.47
2018-12-24T06:18:18.833Z,98.30
2018-12-24T06:20:48.368Z,74.17
2018-12-24T06:25:52.452Z,183.17
2018-12-24T06:28:21.900Z,322.77
2018-12-24T06:30:51.446Z,159.87
2018-12-24T06:33:20.985Z,66.23
2018-12-24T06:35:50.382Z,33.60
2018-12-24T06:38:19.814Z,34.67
2018-12-24T06:40:49.343Z,22.73
2018-12-24T06:43:18.825Z,16.57
2018-12-24T06:45:48.258Z,18.43
2018-12-24T06:51:25.123Z,55.73
2018-12-24T06:53:54.626Z,42.30
2018-12-24T06:56:24.078Z,73.93
2018-12-24T06:58:53.582Z,138.93
2018-12-24T07:01:23.030Z,72.03
2018-12-24T07:03:52.430Z,57.57
2018-12-24T07:06:21.961Z,46.13
2018-12-24T07:08:51.513Z,205.13
2018-12-24T07:11:20.910Z,132.97
2018-12-24T07:13:50.295Z,104.03
2018-12-24T07:16:19.832Z,132.63
2018-12-24T07:18:49.324Z,62.97
2018-12-24T07:21:18.771Z,51.83
2018-12-24T07:23:48.152Z,89.73
2018-12-24T07:26:17.725Z,61.43
2018-12-24T07:28:47.299Z,63.57
2018-12-24T07:31:17.891Z,61.13
2018-12-24T07:33:47.881Z,61.70
2018-12-24T07:36:17.544Z,64.93
2018-12-24T07:38:46.924Z,92.07
2018-12-24T07:41:16.458Z,115.30
2018-12-24T07:43:45.956Z,130.33
2018-12-24T07:46:15.402Z,115.47
2018-12-24T07:48:44.806Z,118.23
2018-12-24T07:51:14.344Z,128.37
2018-12-24T07:53:43.873Z,128.87
2018-12-24T07:56:13.266Z,141.80
2018-12-24T07:58:42.667Z,130.53
2018-12-24T08:01:12.200Z,141.23
2018-12-24T08:03:41.694Z,128.00
2018-12-24T08:06:11.142Z,153.40
2018-12-24T08:08:42.051Z,150.13
2018-12-24T08:11:11.595Z,164.80
2018-12-24T08:13:41.148Z,157.00
2018-12-24T08:16:10.593Z,125.70
2018-12-24T08:18:40.086Z,108.67
2018-12-24T08:21:09.484Z,118.83
2018-12-24T08:23:38.928Z,154.80
2018-12-24T08:26:08.447Z,124.17
2018-12-24T08:28:37.944Z,74.73
2018-12-24T08:31:07.383Z,68.83
2018-12-24T08:33:36.779Z,55.60
2018-12-24T08:36:06.336Z,42.73
2018-12-24T08:38:35.830Z,113.57
2018-12-24T08:41:05.231Z,93.37
2018-12-24T08:43:34.739Z,41.00
2018-12-24T08:46:04.262Z,30.87
2018-12-24T08:48:33.796Z,31.40
2018-12-24T08:51:03.229Z,35.90
2018-12-24T08:53:32.615Z,36.03
2018-12-24T08:56:02.097Z,74.10
2018-12-24T08:58:31.640Z,34.80
2018-12-24T09:01:19.923Z,43.20
2018-12-24T09:03:49.362Z,38.17
2018-12-24T09:06:18.904Z,31.80
2018-12-24T09:08:48.388Z,36.20
2018-12-24T09:11:17.835Z,33.37
2018-12-24T09:13:47.240Z,25.93
2018-12-24T09:16:16.782Z,17.63
2018-12-24T09:18:46.310Z,17.67
2018-12-24T09:21:15.755Z,25.40
2018-12-24T09:23:45.207Z,28.33
2018-12-24T09:26:14.714Z,29.37
2018-12-24T09:28:44.261Z,24.10
2018-12-24T09:31:14.085Z,31.37
2018-12-24T09:33:43.518Z,38.37
2018-12-24T09:36:13.070Z,37.50
2018-12-24T09:38:42.517Z,37.57
2018-12-24T09:41:12.138Z,62.33
2018-12-24T09:43:41.624Z,32.20
2018-12-24T09:46:11.058Z,24.27
2018-12-24T09:48:40.460Z,23.50
2018-12-24T09:51:09.995Z,20.57
2018-12-24T09:53:39.511Z,24.50
2018-12-24T09:56:12.339Z,49.73
2018-12-24T09:58:40.073Z,46.40
2018-12-24T10:01:09.610Z,53.90
2018-12-24T10:03:48.791Z,62.40
2018-12-24T10:06:38.369Z,53.73
2018-12-24T10:09:11.318Z,49.70
2018-12-24T10:11:40.865Z,40.30
2018-12-24T10:14:10.372Z,37.93
2018-12-24T10:16:39.770Z,30.03
2018-12-24T10:19:09.304Z,24.33
2018-12-24T10:21:38.708Z,28.43
2018-12-24T10:24:08.144Z,43.80
2018-12-24T10:26:37.677Z,99.47
2018-12-24T10:29:07.222Z,103.80
2018-12-24T10:31:36.632Z,138.57
2018-12-24T10:34:06.041Z,77.47
2018-12-24T10:36:35.601Z,43.10
2018-12-24T10:42:19.854Z,36.27
2018-12-24T10:44:49.264Z,37.57
2018-12-24T10:47:18.810Z,42.10
2018-12-24T10:49:48.288Z,38.67
2018-12-24T10:52:17.736Z,34.23
2018-12-24T10:54:47.128Z,31.43
2018-12-24T10:57:16.680Z,36.13
2018-12-24T10:59:46.086Z,35.47
2018-12-24T11:02:15.630Z,42.17
2018-12-24T11:04:45.132Z,38.87
2018-12-24T11:07:14.562Z,36.87
2018-12-24T11:09:44.039Z,66.57
2018-12-24T11:12:13.585Z,39.07
2018-12-24T11:14:43.077Z,40.60
2018-12-24T11:17:12.519Z,53.77
2018-12-24T11:19:41.912Z,41.27
2018-12-24T11:22:11.409Z,38.00
2018-12-24T11:24:40.946Z,41.73
2018-12-24T11:27:10.472Z,38.07
2018-12-24T11:29:39.890Z,35.07
2018-12-24T11:32:09.440Z,46.90
2018-12-24T11:34:38.943Z,54.73
2018-12-24T11:37:10.352Z,57.70
2018-12-24T11:39:39.656Z,55.73
2018-12-24T11:42:09.088Z,54.63
2018-12-24T11:44:38.541Z,50.60
2018-12-24T11:47:08.042Z,42.53
2018-12-24T11:49:37.584Z,34.70
2018-12-24T11:52:07.480Z,38.33
2018-12-24T11:54:36.902Z,41.27
2018-12-24T11:57:06.401Z,53.97
2018-12-24T11:59:35.943Z,66.37
2018-12-24T12:02:09.882Z,44.47
2018-12-24T12:04:36.563Z,36.10
2018-12-24T12:07:06.041Z,51.37
2018-12-24T12:09:54.491Z,40.97
2018-12-24T12:12:23.959Z,48.43
2018-12-24T12:14:53.350Z,44.37
2018-12-24T12:17:22.888Z,48.07
2018-12-24T12:19:52.285Z,44.00
2018-12-24T12:22:21.833Z,49.97
2018-12-24T12:24:51.321Z,44.43
2018-12-24T12:27:20.749Z,41.57
2018-12-24T12:29:50.142Z,43.23
2018-12-24T12:32:19.683Z,47.00
2018-12-24T12:34:49.186Z,41.00
2018-12-24T12:37:18.641Z,51.40
2018-12-24T12:39:48.025Z,41.40
2018-12-24T12:42:17.815Z,34.90
2018-12-24T12:44:47.325Z,31.47
2018-12-24T12:47:16.782Z,35.63
2018-12-24T12:49:46.227Z,35.30
2018-12-24T12:52:15.805Z,36.03
2018-12-24T12:54:45.348Z,35.80
2018-12-24T12:57:14.735Z,74.10
2018-12-24T12:59:44.282Z,127.53
2018-12-24T13:02:13.682Z,79.27
2018-12-24T13:04:43.113Z,66.63
2018-12-24T13:07:12.615Z,52.57
2018-12-24T13:09:42.155Z,47.00
2018-12-24T13:12:11.564Z,40.73
2018-12-24T13:14:40.971Z,54.07
2018-12-24T13:17:10.462Z,50.43
2018-12-24T13:19:40.051Z,64.70
2018-12-24T13:22:09.446Z,74.40
2018-12-24T13:24:38.885Z,61.50
2018-12-24T13:27:08.423Z,54.67
2018-12-24T13:29:37.940Z,95.27
2018-12-24T13:32:07.375Z,199.23
2018-12-24T13:34:36.768Z,101.40
2018-12-24T13:37:06.310Z,67.50
2018-12-24T13:39:35.714Z,111.90
2018-12-24T13:42:05.245Z,46.03
2018-12-24T13:44:34.784Z,45.17
2018-12-24T13:49:52.592Z,64.63
2018-12-24T13:52:22.119Z,45.17
2018-12-24T13:54:51.668Z,70.00
2018-12-24T13:57:21.068Z,77.30
2018-12-24T13:59:50.449Z,53.90
2018-12-24T14:02:19.997Z,70.47
2018-12-24T14:04:49.486Z,73.87
2018-12-24T14:07:18.925Z,69.57
2018-12-24T14:09:48.320Z,110.40
2018-12-24T14:12:17.854Z,137.33
2018-12-24T14:14:47.385Z,133.83
2018-12-24T14:17:18.889Z,53.30
2018-12-24T14:19:48.287Z,54.97
2018-12-24T14:22:17.817Z,50.83
2018-12-24T14:24:47.313Z,49.67
2018-12-24T14:27:16.754Z,62.00
2018-12-24T14:29:46.351Z,69.53
2018-12-24T14:32:15.993Z,82.17
2018-12-24T14:35:04.456Z,79.63
2018-12-24T14:37:33.973Z,69.87
2018-12-24T14:40:06.907Z,79.87
2018-12-24T14:42:36.422Z,96.93
2018-12-24T14:45:06.395Z,149.07
2018-12-24T14:47:35.844Z,125.03
2018-12-24T14:50:05.528Z,83.13
2018-12-24T14:52:35.055Z,60.20
2018-12-24T15:12:20.472Z,63.83
2018-12-24T15:14:50.140Z,52.77
2018-12-24T15:17:19.954Z,47.20
2018-12-24T15:19:49.560Z,41.57
2018-12-24T15:22:19.323Z,99.47
2018-12-24T15:24:49.167Z,121.83
2018-12-24T15:27:18.986Z,126.23
2018-12-24T15:29:48.761Z,84.20
2018-12-24T15:32:19.811Z,89.07
2018-12-24T15:34:49.630Z,76.37
2018-12-24T15:37:19.271Z,53.83
2018-12-24T15:39:48.882Z,42.80
2018-12-24T15:42:18.585Z,42.10
2018-12-24T15:44:48.325Z,66.13
2018-12-24T15:47:18.061Z,69.37
2018-12-24T15:49:47.695Z,54.10
2018-12-24T15:52:17.525Z,57.67
2018-12-24T15:54:46.964Z,76.30
2018-12-24T15:57:16.792Z,80.83
2018-12-24T15:59:46.971Z,113.83
2018-12-24T16:02:16.715Z,102.47
2018-12-24T16:04:46.105Z,152.93
2018-12-24T16:07:15.812Z,143.20
2018-12-24T16:09:45.370Z,141.50
2018-12-24T16:12:15.184Z,86.30
2018-12-24T16:14:44.820Z,69.17
2018-12-24T16:17:14.902Z,60.70
2018-12-24T16:19:44.629Z,48.63
2018-12-24T16:22:14.426Z,56.47
2018-12-24T16:24:43.911Z,88.23
2018-12-24T16:27:13.785Z,96.83
2018-12-24T16:29:43.539Z,130.63
2018-12-24T16:32:14.660Z,124.90
2018-12-24T16:34:44.420Z,121.10
2018-12-24T16:37:17.538Z,115.10
2018-12-24T16:39:47.494Z,121.47
2018-12-24T16:42:17.448Z,117.53
2018-12-24T16:44:47.250Z,81.30
2018-12-24T16:47:17.022Z,76.43
2018-12-24T16:49:46.818Z,88.27
2018-12-24T16:52:16.686Z,119.90
2018-12-24T16:54:46.382Z,102.50
2018-12-24T16:57:15.999Z,74.13
2018-12-24T16:59:45.679Z,75.10
2018-12-24T17:02:15.319Z,84.67
2018-12-24T17:04:44.918Z,88.90
2018-12-24T17:07:14.663Z,91.10
2018-12-24T17:09:44.303Z,110.30
2018-12-24T17:12:14.101Z,71.07
2018-12-24T17:14:43.768Z,69.57
2018-12-24T17:17:13.719Z,93.70
2018-12-24T17:19:43.454Z,79.53
2018-12-24T17:22:13.202Z,70.23
2018-12-24T17:24:43.155Z,57.07
2018-12-24T17:27:12.902Z,52.73
2018-12-24T17:29:42.490Z,46.77
2018-12-24T17:32:12.302Z,54.77
2018-12-24T17:34:41.725Z,50.13
2018-12-24T17:37:12.399Z,45.43
2018-12-24T17:39:43.310Z,45.10
2018-12-24T17:42:13.130Z,32.43
2018-12-24T17:44:42.746Z,24.93
2018-12-24T17:47:16.373Z,19.77
2018-12-24T17:49:45.007Z,22.90
2018-12-24T17:52:14.778Z,18.30
2018-12-24T17:54:44.534Z,18.70
2018-12-24T17:57:14.970Z,16.53
2018-12-24T17:59:45.123Z,10.83
2018-12-24T18:02:14.858Z,12.93
2018-12-24T18:04:44.551Z,11.47
2018-12-24T18:07:14.310Z,8.00
2018-12-24T18:09:44.163Z,11.57
2018-12-24T18:12:13.935Z,9.23
2018-12-24T18:14:43.346Z,11.00
2018-12-24T18:17:13.025Z,10.70
2018-12-24T18:19:42.858Z,8.37
2018-12-24T18:22:12.603Z,8.77
2018-12-24T18:24:42.046Z,5.40
2018-12-24T18:27:11.572Z,7.80
2018-12-24T18:29:41.101Z,7.10
2018-12-24T18:32:10.687Z,5.23
2018-12-24T18:34:40.504Z,6.20
2018-12-24T18:37:10.375Z,6.57
2018-12-24T18:39:39.804Z,4.60
2018-12-24T18:42:09.413Z,6.17
2018-12-24T18:44:39.019Z,4.60
2018-12-24T18:47:08.850Z,4.17
2018-12-24T18:49:38.437Z,4.73
2018-12-24T18:52:08.334Z,4.53
2018-12-24T18:54:37.988Z,4.50
2018-12-24T18:57:07.649Z,2.60
2018-12-24T18:59:37.267Z,3.10
2018-12-24T19:02:07.038Z,4.53
2018-12-24T19:04:38.666Z,4.90
2018-12-24T19:07:08.167Z,3.17
2018-12-24T19:09:37.849Z,4.33
2018-12-24T19:12:07.618Z,4.13
2018-12-24T19:14:37.289Z,3.47
2018-12-24T19:17:06.837Z,4.00
2018-12-24T19:19:36.571Z,5.03
2018-12-24T19:22:06.396Z,4.40
2018-12-24T19:24:35.932Z,3.07
2018-12-24T19:27:05.543Z,3.77
2018-12-24T19:29:38.206Z,3.43
2018-12-24T19:32:08.120Z,2.90
2018-12-24T19:34:37.844Z,2.53
2018-12-24T19:37:07.668Z,3.27
2018-12-24T19:39:37.488Z,2.20
2018-12-24T19:42:07.551Z,2.60
2018-12-24T19:44:37.719Z,1.93
2018-12-24T19:47:07.581Z,1.93
2018-12-24T19:49:37.143Z,2.33
2018-12-24T19:52:06.860Z,2.40
2018-12-24T19:54:36.454Z,10.30
2018-12-24T19:57:06.358Z,11.70
2018-12-24T19:59:36.083Z,2.43
2018-12-24T20:02:05.772Z,3.70
2018-12-24T20:04:35.613Z,3.30
2018-12-24T20:07:05.386Z,3.63
2018-12-24T20:09:35.017Z,4.00
2018-12-24T20:12:06.339Z,5.63
2018-12-24T20:14:36.193Z,3.50
2018-12-24T20:17:05.881Z,6.43
2018-12-24T20:19:35.696Z,7.27
2018-12-24T20:22:05.343Z,11.97
2018-12-24T20:24:35.282Z,5.33
2018-12-24T20:27:04.908Z,10.53
2018-12-24T20:29:34.624Z,4.83
2018-12-24T20:32:04.562Z,7.60
2018-12-24T20:34:34.089Z,2.47
2018-12-24T20:37:03.540Z,2.80
2018-12-24T20:39:34.179Z,2.20
2018-12-24T20:42:05.317Z,3.17
2018-12-24T20:44:35.361Z,1.57
2018-12-24T20:47:05.541Z,1.70
2018-12-24T20:49:36.424Z,3.03
2018-12-24T20:52:06.164Z,1.97
2018-12-24T20:54:35.616Z,3.40
2018-12-24T20:57:05.051Z,2.07
2018-12-24T20:59:34.709Z,1.40
2018-12-24T21:02:04.174Z,1.60
2018-12-24T21:04:33.685Z,2.17
2018-12-24T21:07:03.205Z,1.63
2018-12-24T21:09:32.848Z,1.07
2018-12-24T21:12:02.571Z,3.87
2018-12-24T21:14:32.393Z,1.30
2018-12-24T21:17:01.923Z,2.43
2018-12-24T21:19:31.517Z,2.37
2018-12-24T21:22:01.159Z,2.20
2018-12-24T21:24:30.693Z,2.17
2018-12-24T21:27:00.435Z,2.20
2018-12-24T21:29:30.027Z,2.07
2018-12-24T21:31:59.776Z,1.10
2018-12-24T21:34:29.297Z,1.40
2018-12-24T21:36:59.077Z,2.20
2018-12-24T21:39:28.805Z,2.87
2018-12-24T21:41:58.248Z,2.20
2018-12-24T21:44:28.072Z,3.03
2018-12-24T21:46:57.865Z,3.10
2018-12-24T21:49:27.581Z,2.93
2018-12-24T21:51:57.294Z,4.83
2018-12-24T21:54:26.806Z,3.30
2018-12-24T21:56:56.397Z,2.40
2018-12-24T21:59:26.169Z,2.90
2018-12-24T22:01:55.918Z,7.13
2018-12-24T22:04:25.516Z,2.23
2018-12-24T22:06:55.145Z,2.97
2018-12-24T22:09:24.677Z,2.70
2018-12-24T22:11:54.199Z,1.20
2018-12-24T22:14:23.846Z,2.10
2018-12-24T22:16:53.447Z,3.30
2018-12-24T22:19:23.226Z,5.33
2018-12-24T22:21:52.964Z,6.47
2018-12-24T22:24:22.720Z,3.00
2018-12-24T22:26:52.285Z,2.93
2018-12-24T22:29:22.147Z,1.63
2018-12-24T22:31:51.845Z,1.80
2018-12-24T22:34:21.567Z,1.50
2018-12-24T22:36:51.365Z,1.77
2018-12-24T22:39:20.915Z,1.43
2018-12-24T22:41:50.667Z,0.90
2018-12-24T22:44:20.144Z,1.30
2018-12-24T22:46:49.607Z,1.20
2018-12-24T22:49:19.001Z,1.90
2018-12-24T22:51:48.604Z,1.57
2018-12-24T22:54:18.235Z,4.10
2018-12-24T22:56:48.055Z,1.47
2018-12-24T22:59:17.826Z,2.57
2018-12-24T23:01:47.510Z,2.43
2018-12-24T23:04:16.976Z,1.97
2018-12-24T23:06:46.759Z,2.17
2018-12-24T23:09:16.404Z,1.83
2018-12-24T23:11:45.842Z,2.33
2018-12-24T23:14:15.366Z,1.63
2018-12-24T23:16:44.868Z,0.97
2018-12-24T23:19:14.491Z,1.80
2018-12-24T23:21:43.944Z,1.00
2018-12-24T23:24:13.629Z,2.30
2018-12-24T23:26:43.351Z,1.33
2018-12-24T23:29:12.909Z,0.87
2018-12-24T23:31:42.582Z,1.10
2018-12-24T23:34:12.438Z,2.63
2018-12-24T23:36:42.202Z,1.10
2018-12-24T23:39:11.830Z,1.10
2018-12-24T23:41:41.458Z,1.30
2018-12-24T23:44:11.350Z,1.67
2018-12-24T23:46:40.846Z,1.87
2018-12-24T23:49:10.274Z,1.50
2018-12-24T23:51:39.941Z,1.80
2018-12-24T23:54:09.530Z,1.00
2018-12-24T23:56:39.259Z,1.20
2018-12-24T23:59:08.880Z,1.40
